sensor_id;sensor_type;location;lat;lon;timestamp;P1;durP1;ratioP1;P2;durP2;ratioP2
10851;SDS011;5479;52.046;6.314;2023-02-28T00:01:12;6.07;;;4.07;;
10851;SDS011;5479;52.046;6.314;2023-02-28T00:03:40;6.63;;;4.40;;
10851;SDS011;5479;52.046;6.314;2023-02-28T00:06:08;6.67;;;3.80;;
10851;SDS011;5479;52.046;6.314;2023-02-28T00:08:37;5.50;;;3.73;;
10851;SDS011;5479;52.046;6.314;2023-02-28T00:11:07;5.33;;;3.80;;
10851;SDS011;5479;52.046;6.314;2023-02-28T00:13:38;5.33;;;3.60;;
10851;SDS011;5479;52.046;6.314;2023-02-28T00:16:08;6.27;;;3.80;;
10851;SDS011;5479;52.046;6.314;2023-02-28T00:18:37;5.97;;;3.77;;
10851;SDS011;5479;52.046;6.314;2023-02-28T00:21:05;5.03;;;3.40;;
10851;SDS011;5479;52.046;6.314;2023-02-28T00:23:36;5.70;;;3.60;;
10851;SDS011;5479;52.046;6.314;2023-02-28T00:26:04;5.47;;;3.70;;
10851;SDS011;5479;52.046;6.314;2023-02-28T00:28:33;5.20;;;3.37;;
10851;SDS011;5479;52.046;6.314;2023-02-28T00:31:01;7.90;;;3.83;;
10851;SDS011;5479;52.046;6.314;2023-02-28T00:33:28;7.30;;;3.87;;
10851;SDS011;5479;52.046;6.314;2023-02-28T00:36:03;6.47;;;3.47;;
10851;SDS011;5479;52.046;6.314;2023-02-28T00:38:32;6.20;;;3.47;;
10851;SDS011;5479;52.046;6.314;2023-02-28T00:41:02;6.43;;;3.80;;
10851;SDS011;5479;52.046;6.314;2023-02-28T00:43:31;6.50;;;3.67;;
10851;SDS011;5479;52.046;6.314;2023-02-28T00:46:00;5.47;;;3.30;;
10851;SDS011;5479;52.046;6.314;2023-02-28T00:48:28;5.47;;;3.60;;
10851;SDS011;5479;52.046;6.314;2023-02-28T00:50:56;6.23;;;3.80;;
10851;SDS011;5479;52.046;6.314;2023-02-28T00:53:24;6.17;;;3.57;;
10851;SDS011;5479;52.046;6.314;2023-02-28T00:55:52;6.97;;;3.50;;
10851;SDS011;5479;52.046;6.314;2023-02-28T00:58:22;7.20;;;3.90;;
10851;SDS011;5479;52.046;6.314;2023-02-28T01:00:50;6.53;;;4.20;;
10851;SDS011;5479;52.046;6.314;2023-02-28T01:03:19;6.47;;;3.57;;
10851;SDS011;5479;52.046;6.314;2023-02-28T01:05:48;6.87;;;3.80;;
10851;SDS011;5479;52.046;6.314;2023-02-28T01:08:16;7.13;;;3.80;;
10851;SDS011;5479;52.046;6.314;2023-02-28T01:10:44;5.03;;;3.43;;
10851;SDS011;5479;52.046;6.314;2023-02-28T01:13:14;6.70;;;3.83;;
10851;SDS011;5479;52.046;6.314;2023-02-28T01:15:45;7.30;;;3.60;;
10851;SDS011;5479;52.046;6.314;2023-02-28T01:18:18;5.40;;;3.33;;
10851;SDS011;5479;52.046;6.314;2023-02-28T01:20:48;5.73;;;3.30;;
10851;SDS011;5479;52.046;6.314;2023-02-28T01:23:18;6.17;;;3.60;;
10851;SDS011;5479;52.046;6.314;2023-02-28T01:25:46;5.57;;;3.93;;
10851;SDS011;5479;52.046;6.314;2023-02-28T01:28:13;7.73;;;3.90;;
10851;SDS011;5479;52.046;6.314;2023-02-28T01:30:41;6.80;;;3.50;;
10851;SDS011;5479;52.046;6.314;2023-02-28T01:33:11;6.37;;;3.77;;
10851;SDS011;5479;52.046;6.314;2023-02-28T01:35:39;7.30;;;3.87;;
10851;SDS011;5479;52.046;6.314;2023-02-28T01:38:06;6.47;;;3.63;;
10851;SDS011;5479;52.046;6.314;2023-02-28T01:40:34;5.77;;;3.60;;
10851;SDS011;5479;52.046;6.314;2023-02-28T01:43:02;5.70;;;3.70;;
10851;SDS011;5479;52.046;6.314;2023-02-28T01:45:32;6.47;;;3.87;;
10851;SDS011;5479;52.046;6.314;2023-02-28T01:48:03;6.00;;;3.40;;
10851;SDS011;5479;52.046;6.314;2023-02-28T01:50:37;7.77;;;4.17;;
10851;SDS011;5479;52.046;6.314;2023-02-28T01:53:10;5.77;;;3.80;;
10851;SDS011;5479;52.046;6.314;2023-02-28T01:55:41;6.83;;;4.20;;
10851;SDS011;5479;52.046;6.314;2023-02-28T01:58:12;6.17;;;3.83;;
10851;SDS011;5479;52.046;6.314;2023-02-28T02:00:40;6.20;;;3.83;;
10851;SDS011;5479;52.046;6.314;2023-02-28T02:03:09;5.47;;;3.57;;
10851;SDS011;5479;52.046;6.314;2023-02-28T02:05:42;7.33;;;3.90;;
10851;SDS011;5479;52.046;6.314;2023-02-28T02:08:15;7.30;;;4.07;;
10851;SDS011;5479;52.046;6.314;2023-02-28T02:10:45;5.47;;;3.40;;
10851;SDS011;5479;52.046;6.314;2023-02-28T02:13:20;6.80;;;4.00;;
10851;SDS011;5479;52.046;6.314;2023-02-28T02:16:03;6.30;;;3.70;;
10851;SDS011;5479;52.046;6.314;2023-02-28T02:18:40;6.73;;;4.10;;
10851;SDS011;5479;52.046;6.314;2023-02-28T02:21:23;5.73;;;3.53;;
10851;SDS011;5479;52.046;6.314;2023-02-28T02:27:16;5.80;;;3.67;;
10851;SDS011;5479;52.046;6.314;2023-02-28T02:33:13;6.17;;;3.93;;
10851;SDS011;5479;52.046;6.314;2023-02-28T02:35:59;6.13;;;3.60;;
10851;SDS011;5479;52.046;6.314;2023-02-28T02:38:34;5.67;;;3.67;;
10851;SDS011;5479;52.046;6.314;2023-02-28T02:41:08;6.33;;;3.70;;
10851;SDS011;5479;52.046;6.314;2023-02-28T02:43:44;6.17;;;3.63;;
10851;SDS011;5479;52.046;6.314;2023-02-28T02:46:17;6.27;;;3.50;;
10851;SDS011;5479;52.046;6.314;2023-02-28T02:48:48;5.80;;;3.77;;
10851;SDS011;5479;52.046;6.314;2023-02-28T02:51:20;6.20;;;3.90;;
10851;SDS011;5479;52.046;6.314;2023-02-28T02:53:52;5.40;;;3.63;;
10851;SDS011;5479;52.046;6.314;2023-02-28T02:56:28;6.80;;;3.93;;
10851;SDS011;5479;52.046;6.314;2023-02-28T02:59:00;5.13;;;3.53;;
10851;SDS011;5479;52.046;6.314;2023-02-28T03:01:30;6.50;;;3.60;;
10851;SDS011;5479;52.046;6.314;2023-02-28T03:04:00;4.50;;;3.07;;
10851;SDS011;5479;52.046;6.314;2023-02-28T03:06:33;6.43;;;3.50;;
10851;SDS011;5479;52.046;6.314;2023-02-28T03:09:01;6.67;;;3.90;;
10851;SDS011;5479;52.046;6.314;2023-02-28T03:11:30;5.77;;;3.83;;
10851;SDS011;5479;52.046;6.314;2023-02-28T03:17:19;5.90;;;3.40;;
10851;SDS011;5479;52.046;6.314;2023-02-28T03:20:07;6.00;;;3.60;;
10851;SDS011;5479;52.046;6.314;2023-02-28T03:22:47;5.70;;;3.50;;
10851;SDS011;5479;52.046;6.314;2023-02-28T03:25:27;6.07;;;3.23;;
10851;SDS011;5479;52.046;6.314;2023-02-28T03:28:00;6.20;;;3.70;;
10851;SDS011;5479;52.046;6.314;2023-02-28T03:30:35;6.57;;;3.40;;
10851;SDS011;5479;52.046;6.314;2023-02-28T03:33:10;5.30;;;3.30;;
10851;SDS011;5479;52.046;6.314;2023-02-28T03:35:42;5.53;;;3.63;;
10851;SDS011;5479;52.046;6.314;2023-02-28T03:38:17;6.33;;;3.33;;
10851;SDS011;5479;52.046;6.314;2023-02-28T03:40:50;5.07;;;3.50;;
10851;SDS011;5479;52.046;6.314;2023-02-28T03:43:24;5.63;;;3.30;;
10851;SDS011;5479;52.046;6.314;2023-02-28T03:45:55;5.97;;;3.47;;
10851;SDS011;5479;52.046;6.314;2023-02-28T03:48:30;7.87;;;4.07;;
10851;SDS011;5479;52.046;6.314;2023-02-28T03:51:03;7.03;;;3.40;;
10851;SDS011;5479;52.046;6.314;2023-02-28T03:53:36;6.10;;;3.63;;
10851;SDS011;5479;52.046;6.314;2023-02-28T03:56:11;5.53;;;3.40;;
10851;SDS011;5479;52.046;6.314;2023-02-28T03:58:44;5.83;;;4.00;;
10851;SDS011;5479;52.046;6.314;2023-02-28T04:01:19;6.73;;;4.07;;
10851;SDS011;5479;52.046;6.314;2023-02-28T04:03:49;6.10;;;3.90;;
10851;SDS011;5479;52.046;6.314;2023-02-28T04:06:18;6.40;;;3.77;;
10851;SDS011;5479;52.046;6.314;2023-02-28T04:08:49;5.90;;;3.70;;
10851;SDS011;5479;52.046;6.314;2023-02-28T04:11:19;6.60;;;3.87;;
10851;SDS011;5479;52.046;6.314;2023-02-28T04:13:49;6.80;;;4.13;;
10851;SDS011;5479;52.046;6.314;2023-02-28T04:16:18;6.67;;;4.17;;
10851;SDS011;5479;52.046;6.314;2023-02-28T04:18:50;6.03;;;3.90;;
10851;SDS011;5479;52.046;6.314;2023-02-28T04:21:18;6.37;;;3.80;;
10851;SDS011;5479;52.046;6.314;2023-02-28T04:23:49;6.30;;;4.00;;
10851;SDS011;5479;52.046;6.314;2023-02-28T04:26:17;5.53;;;3.87;;
10851;SDS011;5479;52.046;6.314;2023-02-28T04:28:45;5.70;;;3.50;;
10851;SDS011;5479;52.046;6.314;2023-02-28T04:31:13;6.30;;;3.70;;
10851;SDS011;5479;52.046;6.314;2023-02-28T04:33:42;5.70;;;3.77;;
10851;SDS011;5479;52.046;6.314;2023-02-28T04:36:09;6.20;;;3.47;;
10851;SDS011;5479;52.046;6.314;2023-02-28T04:38:38;5.40;;;3.47;;
10851;SDS011;5479;52.046;6.314;2023-02-28T04:41:07;5.30;;;3.47;;
10851;SDS011;5479;52.046;6.314;2023-02-28T04:43:35;5.73;;;3.50;;
10851;SDS011;5479;52.046;6.314;2023-02-28T04:46:04;7.30;;;3.60;;
10851;SDS011;5479;52.046;6.314;2023-02-28T04:48:34;6.63;;;3.27;;
10851;SDS011;5479;52.046;6.314;2023-02-28T04:51:04;5.33;;;3.70;;
10851;SDS011;5479;52.046;6.314;2023-02-28T04:53:33;6.67;;;3.50;;
10851;SDS011;5479;52.046;6.314;2023-02-28T04:56:01;5.37;;;3.57;;
10851;SDS011;5479;52.046;6.314;2023-02-28T04:58:33;5.97;;;3.77;;
10851;SDS011;5479;52.046;6.314;2023-02-28T05:01:01;5.67;;;3.70;;
10851;SDS011;5479;52.046;6.314;2023-02-28T05:03:30;6.17;;;3.20;;
10851;SDS011;5479;52.046;6.314;2023-02-28T05:05:58;5.97;;;3.47;;
10851;SDS011;5479;52.046;6.314;2023-02-28T05:08:26;4.93;;;3.00;;
10851;SDS011;5479;52.046;6.314;2023-02-28T05:10:56;7.27;;;3.90;;
10851;SDS011;5479;52.046;6.314;2023-02-28T05:13:23;6.07;;;3.70;;
10851;SDS011;5479;52.046;6.314;2023-02-28T05:15:53;5.73;;;3.50;;
10851;SDS011;5479;52.046;6.314;2023-02-28T05:18:21;6.07;;;3.50;;
10851;SDS011;5479;52.046;6.314;2023-02-28T05:20:49;5.20;;;3.30;;
10851;SDS011;5479;52.046;6.314;2023-02-28T05:23:17;6.00;;;3.50;;
10851;SDS011;5479;52.046;6.314;2023-02-28T05:25:47;5.70;;;3.70;;
10851;SDS011;5479;52.046;6.314;2023-02-28T05:28:15;5.57;;;3.50;;
10851;SDS011;5479;52.046;6.314;2023-02-28T05:30:43;11.73;;;3.93;;
10851;SDS011;5479;52.046;6.314;2023-02-28T05:33:12;5.90;;;3.27;;
10851;SDS011;5479;52.046;6.314;2023-02-28T05:35:41;6.17;;;4.00;;
10851;SDS011;5479;52.046;6.314;2023-02-28T05:38:09;5.90;;;3.80;;
10851;SDS011;5479;52.046;6.314;2023-02-28T05:40:38;7.07;;;4.27;;
10851;SDS011;5479;52.046;6.314;2023-02-28T05:43:07;5.87;;;3.87;;
10851;SDS011;5479;52.046;6.314;2023-02-28T05:45:38;5.63;;;3.60;;
10851;SDS011;5479;52.046;6.314;2023-02-28T05:48:07;5.80;;;3.50;;
10851;SDS011;5479;52.046;6.314;2023-02-28T05:50:36;6.23;;;3.80;;
10851;SDS011;5479;52.046;6.314;2023-02-28T05:53:04;4.93;;;3.47;;
10851;SDS011;5479;52.046;6.314;2023-02-28T05:55:32;5.93;;;3.50;;
10851;SDS011;5479;52.046;6.314;2023-02-28T05:58:02;5.80;;;3.70;;
10851;SDS011;5479;52.046;6.314;2023-02-28T06:00:30;7.17;;;3.93;;
10851;SDS011;5479;52.046;6.314;2023-02-28T06:02:57;6.50;;;3.77;;
10851;SDS011;5479;52.046;6.314;2023-02-28T06:05:28;6.27;;;3.80;;
10851;SDS011;5479;52.046;6.314;2023-02-28T06:07:57;6.33;;;3.80;;
10851;SDS011;5479;52.046;6.314;2023-02-28T06:10:25;6.33;;;3.80;;
10851;SDS011;5479;52.046;6.314;2023-02-28T06:12:53;5.50;;;3.70;;
10851;SDS011;5479;52.046;6.314;2023-02-28T06:15:22;6.27;;;4.03;;
10851;SDS011;5479;52.046;6.314;2023-02-28T06:17:50;6.10;;;4.20;;
10851;SDS011;5479;52.046;6.314;2023-02-28T06:20:18;8.97;;;4.13;;
10851;SDS011;5479;52.046;6.314;2023-02-28T06:22:46;5.67;;;3.80;;
10851;SDS011;5479;52.046;6.314;2023-02-28T06:25:16;7.57;;;4.00;;
10851;SDS011;5479;52.046;6.314;2023-02-28T06:27:44;5.60;;;3.60;;
10851;SDS011;5479;52.046;6.314;2023-02-28T06:30:12;7.40;;;4.20;;
10851;SDS011;5479;52.046;6.314;2023-02-28T06:32:41;5.30;;;3.73;;
10851;SDS011;5479;52.046;6.314;2023-02-28T06:35:14;6.97;;;3.90;;
10851;SDS011;5479;52.046;6.314;2023-02-28T06:37:42;6.63;;;4.30;;
10851;SDS011;5479;52.046;6.314;2023-02-28T06:40:11;6.17;;;4.00;;
10851;SDS011;5479;52.046;6.314;2023-02-28T06:42:41;6.30;;;4.23;;
10851;SDS011;5479;52.046;6.314;2023-02-28T06:45:10;5.60;;;3.93;;
10851;SDS011;5479;52.046;6.314;2023-02-28T06:47:40;6.67;;;4.23;;
10851;SDS011;5479;52.046;6.314;2023-02-28T06:50:10;6.13;;;3.63;;
10851;SDS011;5479;52.046;6.314;2023-02-28T06:52:39;5.87;;;3.63;;
10851;SDS011;5479;52.046;6.314;2023-02-28T06:55:07;5.63;;;3.77;;
10851;SDS011;5479;52.046;6.314;2023-02-28T06:57:36;6.33;;;3.53;;
10851;SDS011;5479;52.046;6.314;2023-02-28T07:00:06;6.67;;;3.60;;
10851;SDS011;5479;52.046;6.314;2023-02-28T07:02:36;5.97;;;3.73;;
10851;SDS011;5479;52.046;6.314;2023-02-28T07:05:05;6.07;;;3.83;;
10851;SDS011;5479;52.046;6.314;2023-02-28T07:07:35;6.17;;;3.70;;
10851;SDS011;5479;52.046;6.314;2023-02-28T07:10:05;5.67;;;3.40;;
10851;SDS011;5479;52.046;6.314;2023-02-28T07:12:33;6.67;;;3.60;;
10851;SDS011;5479;52.046;6.314;2023-02-28T07:15:01;6.90;;;4.00;;
10851;SDS011;5479;52.046;6.314;2023-02-28T07:17:30;5.20;;;3.50;;
10851;SDS011;5479;52.046;6.314;2023-02-28T07:19:58;6.03;;;3.87;;
10851;SDS011;5479;52.046;6.314;2023-02-28T07:22:26;7.10;;;3.87;;
10851;SDS011;5479;52.046;6.314;2023-02-28T07:24:54;5.77;;;3.73;;
10851;SDS011;5479;52.046;6.314;2023-02-28T07:27:22;5.97;;;3.60;;
10851;SDS011;5479;52.046;6.314;2023-02-28T07:29:51;7.13;;;3.83;;
10851;SDS011;5479;52.046;6.314;2023-02-28T07:32:21;5.60;;;3.50;;
10851;SDS011;5479;52.046;6.314;2023-02-28T07:34:50;5.43;;;3.60;;
10851;SDS011;5479;52.046;6.314;2023-02-28T07:37:18;5.53;;;3.40;;
10851;SDS011;5479;52.046;6.314;2023-02-28T07:39:46;4.93;;;3.40;;
10851;SDS011;5479;52.046;6.314;2023-02-28T07:42:14;5.57;;;3.30;;
10851;SDS011;5479;52.046;6.314;2023-02-28T07:44:42;6.73;;;3.50;;
10851;SDS011;5479;52.046;6.314;2023-02-28T07:47:10;7.10;;;3.80;;
10851;SDS011;5479;52.046;6.314;2023-02-28T07:49:38;5.20;;;3.20;;
10851;SDS011;5479;52.046;6.314;2023-02-28T07:52:07;6.83;;;3.13;;
10851;SDS011;5479;52.046;6.314;2023-02-28T07:54:35;5.53;;;2.80;;
10851;SDS011;5479;52.046;6.314;2023-02-28T07:57:03;5.50;;;3.37;;
10851;SDS011;5479;52.046;6.314;2023-02-28T07:59:31;4.50;;;2.87;;
10851;SDS011;5479;52.046;6.314;2023-02-28T08:01:59;5.53;;;2.90;;
10851;SDS011;5479;52.046;6.314;2023-02-28T08:04:27;5.33;;;2.90;;
10851;SDS011;5479;52.046;6.314;2023-02-28T08:06:55;4.03;;;2.27;;
10851;SDS011;5479;52.046;6.314;2023-02-28T08:09:24;3.57;;;2.27;;
10851;SDS011;5479;52.046;6.314;2023-02-28T08:11:53;3.27;;;1.90;;
10851;SDS011;5479;52.046;6.314;2023-02-28T08:14:21;2.97;;;2.10;;
10851;SDS011;5479;52.046;6.314;2023-02-28T08:16:50;3.27;;;2.10;;
10851;SDS011;5479;52.046;6.314;2023-02-28T08:19:18;4.40;;;1.90;;
10851;SDS011;5479;52.046;6.314;2023-02-28T08:21:45;3.97;;;2.00;;
10851;SDS011;5479;52.046;6.314;2023-02-28T08:24:14;2.87;;;1.90;;
10851;SDS011;5479;52.046;6.314;2023-02-28T08:26:44;2.73;;;1.70;;
10851;SDS011;5479;52.046;6.314;2023-02-28T08:29:12;3.77;;;1.90;;
10851;SDS011;5479;52.046;6.314;2023-02-28T08:31:40;3.97;;;1.97;;
10851;SDS011;5479;52.046;6.314;2023-02-28T08:34:09;2.70;;;1.60;;
10851;SDS011;5479;52.046;6.314;2023-02-28T08:36:38;2.93;;;1.67;;
10851;SDS011;5479;52.046;6.314;2023-02-28T08:39:07;3.20;;;1.90;;
10851;SDS011;5479;52.046;6.314;2023-02-28T08:41:35;2.50;;;1.37;;
10851;SDS011;5479;52.046;6.314;2023-02-28T08:44:04;2.87;;;1.67;;
10851;SDS011;5479;52.046;6.314;2023-02-28T08:46:32;3.10;;;1.73;;
10851;SDS011;5479;52.046;6.314;2023-02-28T08:49:00;2.73;;;1.80;;
10851;SDS011;5479;52.046;6.314;2023-02-28T08:51:28;2.03;;;1.40;;
10851;SDS011;5479;52.046;6.314;2023-02-28T08:53:57;1.50;;;1.30;;
10851;SDS011;5479;52.046;6.314;2023-02-28T08:56:27;2.07;;;1.50;;
10851;SDS011;5479;52.046;6.314;2023-02-28T08:58:56;1.87;;;1.30;;
10851;SDS011;5479;52.046;6.314;2023-02-28T09:01:26;2.20;;;1.30;;
10851;SDS011;5479;52.046;6.314;2023-02-28T09:03:57;2.20;;;1.50;;
10851;SDS011;5479;52.046;6.314;2023-02-28T09:06:26;3.13;;;1.70;;
10851;SDS011;5479;52.046;6.314;2023-02-28T09:08:56;2.80;;;1.50;;
10851;SDS011;5479;52.046;6.314;2023-02-28T09:11:25;2.23;;;1.47;;
10851;SDS011;5479;52.046;6.314;2023-02-28T09:13:54;2.80;;;1.60;;
10851;SDS011;5479;52.046;6.314;2023-02-28T09:16:23;2.50;;;1.60;;
10851;SDS011;5479;52.046;6.314;2023-02-28T09:18:52;2.60;;;1.70;;
10851;SDS011;5479;52.046;6.314;2023-02-28T09:21:20;2.33;;;1.50;;
10851;SDS011;5479;52.046;6.314;2023-02-28T09:23:48;1.93;;;1.23;;
10851;SDS011;5479;52.046;6.314;2023-02-28T09:26:18;3.20;;;1.90;;
10851;SDS011;5479;52.046;6.314;2023-02-28T09:28:48;2.87;;;1.77;;
10851;SDS011;5479;52.046;6.314;2023-02-28T09:31:17;2.83;;;1.80;;
10851;SDS011;5479;52.046;6.314;2023-02-28T09:33:48;1.83;;;1.40;;
10851;SDS011;5479;52.046;6.314;2023-02-28T09:36:17;1.87;;;1.50;;
10851;SDS011;5479;52.046;6.314;2023-02-28T09:38:46;3.77;;;1.90;;
10851;SDS011;5479;52.046;6.314;2023-02-28T09:41:14;2.63;;;1.60;;
10851;SDS011;5479;52.046;6.314;2023-02-28T09:43:45;2.10;;;1.60;;
10851;SDS011;5479;52.046;6.314;2023-02-28T09:46:21;2.13;;;1.40;;
10851;SDS011;5479;52.046;6.314;2023-02-28T09:48:57;2.40;;;1.50;;
10851;SDS011;5479;52.046;6.314;2023-02-28T09:51:33;2.67;;;1.73;;
10851;SDS011;5479;52.046;6.314;2023-02-28T09:54:09;2.03;;;1.47;;
10851;SDS011;5479;52.046;6.314;2023-02-28T09:56:45;2.30;;;1.50;;
10851;SDS011;5479;52.046;6.314;2023-02-28T09:59:24;3.20;;;1.90;;
10851;SDS011;5479;52.046;6.314;2023-02-28T10:02:02;2.53;;;1.60;;
10851;SDS011;5479;52.046;6.314;2023-02-28T10:04:40;3.13;;;1.77;;
10851;SDS011;5479;52.046;6.314;2023-02-28T10:07:17;2.00;;;1.60;;
10851;SDS011;5479;52.046;6.314;2023-02-28T10:09:53;2.97;;;1.87;;
10851;SDS011;5479;52.046;6.314;2023-02-28T10:12:24;2.07;;;1.60;;
10851;SDS011;5479;52.046;6.314;2023-02-28T10:14:55;2.50;;;1.80;;
10851;SDS011;5479;52.046;6.314;2023-02-28T10:17:29;2.10;;;1.47;;
10851;SDS011;5479;52.046;6.314;2023-02-28T10:20:04;2.40;;;1.60;;
10851;SDS011;5479;52.046;6.314;2023-02-28T10:22:42;2.10;;;1.60;;
10851;SDS011;5479;52.046;6.314;2023-02-28T10:25:20;2.23;;;1.50;;
10851;SDS011;5479;52.046;6.314;2023-02-28T10:27:52;2.53;;;1.60;;
10851;SDS011;5479;52.046;6.314;2023-02-28T10:30:25;2.93;;;1.60;;
10851;SDS011;5479;52.046;6.314;2023-02-28T10:32:53;2.63;;;1.70;;
10851;SDS011;5479;52.046;6.314;2023-02-28T10:35:22;2.30;;;1.60;;
10851;SDS011;5479;52.046;6.314;2023-02-28T10:37:53;2.90;;;1.80;;
10851;SDS011;5479;52.046;6.314;2023-02-28T10:40:27;2.67;;;1.80;;
10851;SDS011;5479;52.046;6.314;2023-02-28T10:43:05;3.67;;;1.70;;
10851;SDS011;5479;52.046;6.314;2023-02-28T10:45:57;2.10;;;1.60;;
10851;SDS011;5479;52.046;6.314;2023-02-28T10:48:30;2.23;;;1.57;;
10851;SDS011;5479;52.046;6.314;2023-02-28T10:51:01;2.17;;;1.73;;
10851;SDS011;5479;52.046;6.314;2023-02-28T10:53:33;2.03;;;1.63;;
10851;SDS011;5479;52.046;6.314;2023-02-28T10:56:06;3.43;;;1.73;;
10851;SDS011;5479;52.046;6.314;2023-02-28T10:58:48;2.97;;;1.70;;
10851;SDS011;5479;52.046;6.314;2023-02-28T11:01:18;2.63;;;1.83;;
10851;SDS011;5479;52.046;6.314;2023-02-28T11:03:48;3.00;;;1.67;;
10851;SDS011;5479;52.046;6.314;2023-02-28T11:06:17;2.23;;;1.53;;
10851;SDS011;5479;52.046;6.314;2023-02-28T11:08:51;2.70;;;1.83;;
10851;SDS011;5479;52.046;6.314;2023-02-28T11:11:21;3.07;;;1.80;;
10851;SDS011;5479;52.046;6.314;2023-02-28T11:13:52;2.23;;;1.80;;
10851;SDS011;5479;52.046;6.314;2023-02-28T11:16:30;2.33;;;1.80;;
10851;SDS011;5479;52.046;6.314;2023-02-28T11:19:01;3.57;;;2.10;;
10851;SDS011;5479;52.046;6.314;2023-02-28T11:21:33;3.43;;;2.00;;
10851;SDS011;5479;52.046;6.314;2023-02-28T11:24:14;3.47;;;2.20;;
10851;SDS011;5479;52.046;6.314;2023-02-28T11:26:50;4.20;;;2.30;;
10851;SDS011;5479;52.046;6.314;2023-02-28T11:29:19;2.87;;;1.90;;
10851;SDS011;5479;52.046;6.314;2023-02-28T11:32:05;3.50;;;2.10;;
10851;SDS011;5479;52.046;6.314;2023-02-28T11:34:40;3.20;;;1.83;;
10851;SDS011;5479;52.046;6.314;2023-02-28T11:37:12;3.10;;;1.77;;
10851;SDS011;5479;52.046;6.314;2023-02-28T11:39:44;2.03;;;1.57;;
10851;SDS011;5479;52.046;6.314;2023-02-28T11:45:19;2.17;;;1.67;;
10851;SDS011;5479;52.046;6.314;2023-02-28T11:47:58;2.33;;;1.73;;
10851;SDS011;5479;52.046;6.314;2023-02-28T11:50:39;2.37;;;1.50;;
10851;SDS011;5479;52.046;6.314;2023-02-28T11:53:14;2.87;;;1.70;;
10851;SDS011;5479;52.046;6.314;2023-02-28T11:55:53;3.13;;;1.90;;
10851;SDS011;5479;52.046;6.314;2023-02-28T11:58:31;3.17;;;1.97;;
10851;SDS011;5479;52.046;6.314;2023-02-28T12:01:09;2.00;;;1.60;;
10851;SDS011;5479;52.046;6.314;2023-02-28T12:04:14;3.73;;;2.00;;
10851;SDS011;5479;52.046;6.314;2023-02-28T12:06:53;2.27;;;1.60;;
10851;SDS011;5479;52.046;6.314;2023-02-28T12:09:32;1.83;;;1.47;;
10851;SDS011;5479;52.046;6.314;2023-02-28T12:12:15;2.97;;;1.80;;
10851;SDS011;5479;52.046;6.314;2023-02-28T12:14:59;3.37;;;1.70;;
10851;SDS011;5479;52.046;6.314;2023-02-28T12:17:44;2.57;;;1.67;;
10851;SDS011;5479;52.046;6.314;2023-02-28T12:20:25;3.80;;;1.80;;
10851;SDS011;5479;52.046;6.314;2023-02-28T12:23:07;2.97;;;1.90;;
10851;SDS011;5479;52.046;6.314;2023-02-28T12:25:53;2.70;;;1.90;;
10851;SDS011;5479;52.046;6.314;2023-02-28T12:28:30;4.13;;;2.00;;
10851;SDS011;5479;52.046;6.314;2023-02-28T12:31:03;3.70;;;2.10;;
10851;SDS011;5479;52.046;6.314;2023-02-28T12:33:36;3.53;;;1.97;;
10851;SDS011;5479;52.046;6.314;2023-02-28T12:36:10;2.57;;;1.67;;
10851;SDS011;5479;52.046;6.314;2023-02-28T12:38:44;3.70;;;2.20;;
10851;SDS011;5479;52.046;6.314;2023-02-28T12:41:16;3.20;;;2.00;;
10851;SDS011;5479;52.046;6.314;2023-02-28T12:43:50;2.67;;;1.80;;
10851;SDS011;5479;52.046;6.314;2023-02-28T12:46:32;2.90;;;1.63;;
10851;SDS011;5479;52.046;6.314;2023-02-28T12:49:05;3.37;;;1.83;;
10851;SDS011;5479;52.046;6.314;2023-02-28T12:51:36;2.73;;;1.80;;
10851;SDS011;5479;52.046;6.314;2023-02-28T12:54:09;2.93;;;1.70;;
10851;SDS011;5479;52.046;6.314;2023-02-28T12:56:44;2.63;;;1.70;;
10851;SDS011;5479;52.046;6.314;2023-02-28T12:59:21;2.50;;;1.67;;
10851;SDS011;5479;52.046;6.314;2023-02-28T13:01:57;2.97;;;1.73;;
10851;SDS011;5479;52.046;6.314;2023-02-28T13:04:45;2.80;;;1.70;;
10851;SDS011;5479;52.046;6.314;2023-02-28T13:07:35;2.60;;;1.80;;
10851;SDS011;5479;52.046;6.314;2023-02-28T13:10:22;1.93;;;1.50;;
10851;SDS011;5479;52.046;6.314;2023-02-28T13:12:53;2.67;;;1.77;;
10851;SDS011;5479;52.046;6.314;2023-02-28T13:15:24;3.40;;;1.70;;
10851;SDS011;5479;52.046;6.314;2023-02-28T13:17:55;2.40;;;1.70;;
10851;SDS011;5479;52.046;6.314;2023-02-28T13:20:26;3.10;;;1.67;;
10851;SDS011;5479;52.046;6.314;2023-02-28T13:22:59;2.87;;;1.73;;
10851;SDS011;5479;52.046;6.314;2023-02-28T13:34:41;3.53;;;1.90;;
10851;SDS011;5479;52.046;6.314;2023-02-28T13:37:31;2.53;;;1.53;;
10851;SDS011;5479;52.046;6.314;2023-02-28T13:42:55;3.00;;;1.80;;
10851;SDS011;5479;52.046;6.314;2023-02-28T13:45:25;2.20;;;1.57;;
10851;SDS011;5479;52.046;6.314;2023-02-28T13:47:58;2.80;;;1.80;;
10851;SDS011;5479;52.046;6.314;2023-02-28T13:50:30;2.37;;;1.70;;
10851;SDS011;5479;52.046;6.314;2023-02-28T13:56:23;2.93;;;1.80;;
10851;SDS011;5479;52.046;6.314;2023-02-28T13:58:59;2.33;;;1.57;;
10851;SDS011;5479;52.046;6.314;2023-02-28T14:01:48;1.60;;;1.37;;
10851;SDS011;5479;52.046;6.314;2023-02-28T14:04:46;2.20;;;1.50;;
10851;SDS011;5479;52.046;6.314;2023-02-28T14:07:24;2.40;;;1.60;;
10851;SDS011;5479;52.046;6.314;2023-02-28T14:09:58;3.50;;;1.70;;
10851;SDS011;5479;52.046;6.314;2023-02-28T14:15:41;2.33;;;1.43;;
10851;SDS011;5479;52.046;6.314;2023-02-28T14:18:23;2.30;;;1.60;;
10851;SDS011;5479;52.046;6.314;2023-02-28T14:20:57;2.97;;;1.60;;
10851;SDS011;5479;52.046;6.314;2023-02-28T14:23:36;3.40;;;1.60;;
10851;SDS011;5479;52.046;6.314;2023-02-28T14:26:30;2.80;;;1.67;;
10851;SDS011;5479;52.046;6.314;2023-02-28T14:29:16;3.43;;;1.90;;
10851;SDS011;5479;52.046;6.314;2023-02-28T14:32:06;2.50;;;1.80;;
10851;SDS011;5479;52.046;6.314;2023-02-28T14:34:42;2.77;;;1.80;;
10851;SDS011;5479;52.046;6.314;2023-02-28T14:37:19;2.87;;;1.80;;
10851;SDS011;5479;52.046;6.314;2023-02-28T14:39:52;2.73;;;1.70;;
10851;SDS011;5479;52.046;6.314;2023-02-28T14:42:27;2.97;;;1.67;;
10851;SDS011;5479;52.046;6.314;2023-02-28T14:48:37;3.10;;;1.90;;
10851;SDS011;5479;52.046;6.314;2023-02-28T14:51:06;2.40;;;1.70;;
10851;SDS011;5479;52.046;6.314;2023-02-28T14:53:35;3.30;;;1.80;;
10851;SDS011;5479;52.046;6.314;2023-02-28T14:56:16;3.20;;;1.97;;
10851;SDS011;5479;52.046;6.314;2023-02-28T14:58:54;2.67;;;1.73;;
10851;SDS011;5479;52.046;6.314;2023-02-28T15:01:24;2.73;;;1.80;;
10851;SDS011;5479;52.046;6.314;2023-02-28T15:04:00;3.00;;;1.90;;
10851;SDS011;5479;52.046;6.314;2023-02-28T15:06:29;3.13;;;1.90;;
10851;SDS011;5479;52.046;6.314;2023-02-28T15:09:08;2.70;;;1.90;;
10851;SDS011;5479;52.046;6.314;2023-02-28T15:11:39;3.53;;;1.97;;
10851;SDS011;5479;52.046;6.314;2023-02-28T15:14:12;3.90;;;2.20;;
10851;SDS011;5479;52.046;6.314;2023-02-28T15:16:44;3.33;;;2.00;;
10851;SDS011;5479;52.046;6.314;2023-02-28T15:19:17;3.37;;;2.00;;
10851;SDS011;5479;52.046;6.314;2023-02-28T15:21:51;5.07;;;2.30;;
10851;SDS011;5479;52.046;6.314;2023-02-28T15:24:25;3.70;;;2.17;;
10851;SDS011;5479;52.046;6.314;2023-02-28T15:27:04;3.63;;;2.30;;
10851;SDS011;5479;52.046;6.314;2023-02-28T15:29:37;3.27;;;2.00;;
10851;SDS011;5479;52.046;6.314;2023-02-28T15:32:21;3.30;;;2.10;;
10851;SDS011;5479;52.046;6.314;2023-02-28T15:34:53;2.73;;;1.70;;
10851;SDS011;5479;52.046;6.314;2023-02-28T15:40:12;4.87;;;2.50;;
10851;SDS011;5479;52.046;6.314;2023-02-28T15:42:57;3.57;;;2.10;;
10851;SDS011;5479;52.046;6.314;2023-02-28T15:45:26;6.07;;;2.30;;
10851;SDS011;5479;52.046;6.314;2023-02-28T15:47:55;2.93;;;1.93;;
10851;SDS011;5479;52.046;6.314;2023-02-28T15:50:24;3.97;;;2.03;;
10851;SDS011;5479;52.046;6.314;2023-02-28T15:52:55;2.93;;;2.00;;
10851;SDS011;5479;52.046;6.314;2023-02-28T15:55:27;3.10;;;1.97;;
10851;SDS011;5479;52.046;6.314;2023-02-28T15:58:00;4.50;;;2.23;;
10851;SDS011;5479;52.046;6.314;2023-02-28T16:00:32;3.10;;;2.00;;
10851;SDS011;5479;52.046;6.314;2023-02-28T16:03:00;3.10;;;2.00;;
10851;SDS011;5479;52.046;6.314;2023-02-28T16:05:28;3.70;;;2.50;;
10851;SDS011;5479;52.046;6.314;2023-02-28T16:07:59;3.50;;;1.90;;